Time;durP1;ratioP1;P1;durP2;ratioP2;P2;SDS_P1;SDS_P2;PMS_P1;PMS_P2;Temp;Humidity;BMP_temperature;BMP_pressure;BME280_temperature;BME280_humidity;BME280_pressure;Samples;Min_cycle;Max_cycle;Signal;HPM_P1;HPM_P2
2023/11/27 00:00:25;;;;;;;30.00;28.42;;;;;;;;;;5029383;28;20037;-54
2023/11/27 00:02:52;;;;;;;29.38;27.88;;;;;;;;;;5028754;28;20025;-66
2023/11/27 00:05:17;;;;;;;30.42;28.83;;;;;;;;;;5031814;28;20033;-65
2023/11/27 00:07:43;;;;;;;30.35;28.70;;;;;;;;;;5032035;28;20143;-50
2023/11/27 00:10:08;;;;;;;29.92;28.23;;;;;;;;;;5029275;28;20064;-64
2023/11/27 00:12:33;;;;;;;32.33;30.52;;;;;;;;;;5031541;28;20115;-64
2023/11/27 00:14:59;;;;;;;28.50;26.95;;;;;;;;;;5028576;28;20061;-64
2023/11/27 00:17:24;;;;;;;28.90;27.40;;;;;;;;;;5029930;28;20144;-64
2023/11/27 00:19:49;;;;;;;29.52;27.83;;;;;;;;;;5028785;28;20471;-64
2023/11/27 00:22:15;;;;;;;28.77;27.23;;;;;;;;;;5029993;28;20063;-64
2023/11/27 00:24:40;;;;;;;29.67;28.13;;;;;;;;;;5031335;28;20427;-64
2023/11/27 00:27:06;;;;;;;27.33;25.85;;;;;;;;;;5028136;28;20029;-64
2023/11/27 00:29:32;;;;;;;27.85;26.33;;;;;;;;;;5028438;28;20041;-64
2023/11/27 00:31:57;;;;;;;31.10;26.27;;;;;;;;;;5028750;28;20119;-64
2023/11/27 00:34:22;;;;;;;29.35;27.65;;;;;;;;;;5027243;28;20033;-64
2023/11/27 00:36:48;;;;;;;29.27;27.67;;;;;;;;;;5025813;28;20033;-64
2023/11/27 00:39:13;;;;;;;25.90;24.50;;;;;;;;;;5027984;28;20163;-64
2023/11/27 00:41:39;;;;;;;27.58;25.70;;;;;;;;;;5026323;28;20041;-64
2023/11/27 00:44:04;;;;;;;27.60;26.00;;;;;;;;;;5026159;28;20040;-65
2023/11/27 00:46:30;;;;;;;26.52;25.13;;;;;;;;;;5028017;28;20148;-63
2023/11/27 00:48:55;;;;;;;25.63;24.23;;;;;;;;;;5023315;28;20037;-64
2023/11/27 00:51:20;;;;;;;27.08;25.63;;;;;;;;;;5027030;28;20573;-62
2023/11/27 00:53:46;;;;;;;29.10;27.50;;;;;;;;;;5025983;28;20033;-63
2023/11/27 00:56:12;;;;;;;27.83;26.15;;;;;;;;;;5026959;28;20043;-63
2023/11/27 00:58:37;;;;;;;26.55;25.15;;;;;;;;;;5024606;28;20040;-63
2023/11/27 01:01:05;;;;;;;25.98;24.42;;;;;;;;;;5024956;28;20037;-62
2023/11/27 01:03:31;;;;;;;28.63;26.38;;;;;;;;;;5026358;28;20048;-64
2023/11/27 01:05:56;;;;;;;25.45;24.05;;;;;;;;;;5029409;28;20029;-63
2023/11/27 01:08:22;;;;;;;25.70;24.35;;;;;;;;;;5029193;28;20037;-62
2023/11/27 01:10:49;;;;;;;27.77;25.98;;;;;;;;;;5023567;28;20111;-64
2023/11/27 01:13:15;;;;;;;25.08;23.67;;;;;;;;;;5026589;28;20040;-63
2023/11/27 01:15:41;;;;;;;25.15;23.83;;;;;;;;;;5025575;28;20037;-63
2023/11/27 01:18:07;;;;;;;24.85;23.55;;;;;;;;;;5024031;28;20495;-63
2023/11/27 01:20:33;;;;;;;25.08;23.58;;;;;;;;;;5024502;28;20142;-65
2023/11/27 01:22:58;;;;;;;26.45;24.73;;;;;;;;;;5025106;28;20094;-64
2023/11/27 01:25:24;;;;;;;26.85;25.02;;;;;;;;;;5023727;28;20154;-64
2023/11/27 01:27:49;;;;;;;26.92;25.23;;;;;;;;;;5026351;28;20040;-65
2023/11/27 01:30:17;;;;;;;25.65;24.25;;;;;;;;;;5025481;28;20029;-65
2023/11/27 01:32:43;;;;;;;26.00;24.60;;;;;;;;;;5026797;28;20049;-64
2023/11/27 01:35:08;;;;;;;26.23;24.83;;;;;;;;;;4985565;28;1186169;-63
2023/11/27 01:37:34;;;;;;;26.33;24.92;;;;;;;;;;5026281;28;20083;-64
2023/11/27 01:40:00;;;;;;;26.63;25.13;;;;;;;;;;5029290;28;20040;-64
2023/11/27 01:42:25;;;;;;;25.73;24.35;;;;;;;;;;5026250;28;20034;-64
2023/11/27 01:44:51;;;;;;;27.05;25.45;;;;;;;;;;5023924;28;20379;-64
2023/11/27 01:47:18;;;;;;;25.75;24.40;;;;;;;;;;5029572;28;20041;-65
2023/11/27 01:49:44;;;;;;;27.20;25.77;;;;;;;;;;5027895;28;20033;-65
2023/11/27 01:52:10;;;;;;;25.70;24.20;;;;;;;;;;5022423;28;20140;-64
2023/11/27 01:54:38;;;;;;;26.55;25.15;;;;;;;;;;5026242;28;20116;-64
2023/11/27 01:57:04;;;;;;;25.20;23.80;;;;;;;;;;5024039;28;20053;-64
2023/11/27 01:59:30;;;;;;;24.98;23.60;;;;;;;;;;5029071;28;20033;-64
2023/11/27 02:01:57;;;;;;;25.70;24.30;;;;;;;;;;5027575;28;20048;-64
2023/11/27 02:04:22;;;;;;;25.05;23.73;;;;;;;;;;5026826;28;20033;-64
2023/11/27 02:06:50;;;;;;;24.83;23.50;;;;;;;;;;5026958;28;20025;-64
2023/11/27 02:09:16;;;;;;;26.55;24.20;;;;;;;;;;5025158;28;20094;-64
2023/11/27 02:11:50;;;;;;;26.13;24.73;;;;;;;;;;5027975;28;20448;-63
2023/11/27 02:14:16;;;;;;;27.70;26.00;;;;;;;;;;5024291;28;20033;-64
2023/11/27 02:16:44;;;;;;;27.08;25.58;;;;;;;;;;5024071;28;20116;-64
2023/11/27 02:19:10;;;;;;;27.50;26.05;;;;;;;;;;5025841;28;20076;-64
2023/11/27 02:21:36;;;;;;;26.00;24.60;;;;;;;;;;5025747;28;20127;-64
2023/11/27 02:24:01;;;;;;;26.23;24.80;;;;;;;;;;5025361;28;20071;-64
2023/11/27 02:26:26;;;;;;;26.92;25.52;;;;;;;;;;5024378;28;20387;-64
2023/11/27 02:28:52;;;;;;;25.42;24.08;;;;;;;;;;5027548;28;20183;-64
2023/11/27 02:31:17;;;;;;;25.73;24.35;;;;;;;;;;5025306;28;20091;-63
2023/11/27 02:33:42;;;;;;;26.20;24.80;;;;;;;;;;5022595;28;20052;-64
2023/11/27 02:36:08;;;;;;;25.25;23.92;;;;;;;;;;5024134;28;20040;-64
2023/11/27 02:38:34;;;;;;;24.02;22.73;;;;;;;;;;5023583;28;20037;-64
2023/11/27 02:41:00;;;;;;;25.38;24.05;;;;;;;;;;5022562;28;20026;-64
2023/11/27 02:43:25;;;;;;;25.38;23.98;;;;;;;;;;5023749;28;20487;-63
2023/11/27 02:45:51;;;;;;;25.17;23.88;;;;;;;;;;5024437;28;20040;-63
2023/11/27 02:48:16;;;;;;;25.48;23.88;;;;;;;;;;5024001;28;20037;-63
2023/11/27 02:50:43;;;;;;;25.35;23.95;;;;;;;;;;5024953;28;20333;-64
2023/11/27 02:53:08;;;;;;;25.65;24.13;;;;;;;;;;5025254;28;20037;-62
2023/11/27 02:55:34;;;;;;;25.23;23.83;;;;;;;;;;5030121;28;20044;-63
2023/11/27 02:57:59;;;;;;;24.27;22.98;;;;;;;;;;5023858;28;20042;-63
2023/11/27 03:00:25;;;;;;;24.77;23.48;;;;;;;;;;5029230;28;20040;-63
2023/11/27 03:02:50;;;;;;;24.40;23.10;;;;;;;;;;5029680;28;20036;-63
2023/11/27 03:05:16;;;;;;;25.50;24.10;;;;;;;;;;5027100;28;20601;-62
2023/11/27 03:07:41;;;;;;;24.52;23.23;;;;;;;;;;5027987;28;20474;-64
2023/11/27 03:10:08;;;;;;;25.40;23.90;;;;;;;;;;5027395;28;20118;-63
2023/11/27 03:12:34;;;;;;;26.00;24.60;;;;;;;;;;5025771;28;21426;-64
2023/11/27 03:15:00;;;;;;;24.88;23.48;;;;;;;;;;5024911;28;20507;-53
2023/11/27 03:17:25;;;;;;;25.05;23.75;;;;;;;;;;5025490;28;20033;-52
2023/11/27 03:19:53;;;;;;;26.63;25.13;;;;;;;;;;5024948;28;20675;-51
2023/11/27 03:22:23;;;;;;;25.10;23.60;;;;;;;;;;5027158;28;20833;-54
2023/11/27 03:24:49;;;;;;;26.80;25.30;;;;;;;;;;5024989;28;20683;-64
2023/11/27 03:27:14;;;;;;;26.05;24.35;;;;;;;;;;5022370;28;20038;-63
2023/11/27 03:29:40;;;;;;;26.23;24.83;;;;;;;;;;5024476;28;20044;-62
2023/11/27 03:32:06;;;;;;;25.48;24.10;;;;;;;;;;5025731;28;20346;-62
2023/11/27 03:34:31;;;;;;;25.17;23.80;;;;;;;;;;5026928;28;20030;-62
2023/11/27 03:36:56;;;;;;;26.55;25.10;;;;;;;;;;5024095;28;20044;-62
2023/11/27 03:39:22;;;;;;;25.27;23.90;;;;;;;;;;5025182;28;20033;-63
2023/11/27 03:41:50;;;;;;;25.83;24.33;;;;;;;;;;5026041;28;20563;-62
2023/11/27 03:44:15;;;;;;;24.77;23.38;;;;;;;;;;5023270;28;20032;-62
2023/11/27 03:46:41;;;;;;;25.25;23.85;;;;;;;;;;5025321;28;20043;-62
2023/11/27 03:49:06;;;;;;;26.27;24.88;;;;;;;;;;5024876;28;20047;-64
2023/11/27 03:51:32;;;;;;;25.20;23.83;;;;;;;;;;5028272;28;20105;-63
2023/11/27 03:53:57;;;;;;;26.55;25.15;;;;;;;;;;5028251;28;20033;-62
2023/11/27 03:56:22;;;;;;;25.15;23.45;;;;;;;;;;5022654;28;20044;-63
2023/11/27 03:58:48;;;;;;;24.60;23.20;;;;;;;;;;5027694;28;20033;-62
2023/11/27 04:01:13;;;;;;;26.02;24.63;;;;;;;;;;5024590;28;20056;-63
2023/11/27 04:03:40;;;;;;;25.42;24.02;;;;;;;;;;5018126;28;20041;-63
2023/11/27 04:06:07;;;;;;;24.92;23.63;;;;;;;;;;5023690;28;20112;-63
2023/11/27 04:08:33;;;;;;;26.48;25.08;;;;;;;;;;5023689;28;20044;-63
2023/11/27 04:10:58;;;;;;;26.15;24.75;;;;;;;;;;5021880;28;20037;-64
2023/11/27 04:13:23;;;;;;;26.75;25.20;;;;;;;;;;5023645;28;20045;-63
2023/11/27 04:15:49;;;;;;;24.20;22.90;;;;;;;;;;5022348;28;20029;-63
2023/11/27 04:18:15;;;;;;;26.27;24.77;;;;;;;;;;5024057;28;21042;-63
2023/11/27 04:20:41;;;;;;;24.65;23.35;;;;;;;;;;5023632;28;20038;-64
2023/11/27 04:23:07;;;;;;;26.42;24.58;;;;;;;;;;5024477;28;20030;-63
2023/11/27 04:25:32;;;;;;;28.58;26.90;;;;;;;;;;5023144;28;20123;-64
2023/11/27 04:27:58;;;;;;;25.08;23.67;;;;;;;;;;5025357;28;20075;-65
2023/11/27 04:30:23;;;;;;;25.08;23.67;;;;;;;;;;5029968;28;20030;-53
2023/11/27 04:32:49;;;;;;;25.38;23.73;;;;;;;;;;5024746;28;20037;-53
2023/11/27 04:35:15;;;;;;;26.17;24.77;;;;;;;;;;5026189;28;20462;-50
2023/11/27 04:37:40;;;;;;;26.58;24.75;;;;;;;;;;5027789;28;20068;-64
2023/11/27 04:40:10;;;;;;;27.10;25.67;;;;;;;;;;5028758;28;20623;-63
2023/11/27 04:42:38;;;;;;;28.58;27.08;;;;;;;;;;5026923;28;20572;-51
2023/11/27 04:45:06;;;;;;;30.73;28.70;;;;;;;;;;5026525;28;20108;-52
2023/11/27 04:47:32;;;;;;;27.23;25.73;;;;;;;;;;5026685;28;20037;-55
2023/11/27 04:49:57;;;;;;;26.88;25.48;;;;;;;;;;5024676;28;20045;-53
2023/11/27 04:52:22;;;;;;;28.70;27.20;;;;;;;;;;5026695;28;20033;-54
2023/11/27 04:54:48;;;;;;;28.80;27.23;;;;;;;;;;5026135;28;20033;-51
2023/11/27 04:57:14;;;;;;;28.27;26.63;;;;;;;;;;5027116;28;20049;-55
2023/11/27 04:59:45;;;;;;;29.27;27.73;;;;;;;;;;5026923;28;20030;-63
2023/11/27 05:02:10;;;;;;;28.45;26.95;;;;;;;;;;5021169;28;20033;-63
2023/11/27 05:04:36;;;;;;;29.35;27.75;;;;;;;;;;5026287;28;20037;-52
2023/11/27 05:07:02;;;;;;;29.67;28.08;;;;;;;;;;5025900;28;20037;-55
2023/11/27 05:09:27;;;;;;;30.33;28.73;;;;;;;;;;5027500;28;20094;-55
2023/11/27 05:11:53;;;;;;;29.48;27.88;;;;;;;;;;5027021;28;20025;-54
2023/11/27 05:14:18;;;;;;;27.60;26.10;;;;;;;;;;5025834;28;20439;-55
2023/11/27 05:16:43;;;;;;;30.20;28.60;;;;;;;;;;5026112;28;20115;-52
2023/11/27 05:19:09;;;;;;;30.35;28.60;;;;;;;;;;5025841;28;20673;-51
2023/11/27 05:21:34;;;;;;;29.02;27.48;;;;;;;;;;5026595;28;20038;-49
2023/11/27 05:23:59;;;;;;;28.83;27.10;;;;;;;;;;5025480;28;20034;-51
2023/11/27 05:26:25;;;;;;;27.15;25.70;;;;;;;;;;5028505;28;20116;-64
2023/11/27 05:28:50;;;;;;;28.25;26.75;;;;;;;;;;5026087;28;20109;-62
2023/11/27 05:31:15;;;;;;;29.63;28.02;;;;;;;;;;5024239;28;20033;-64
2023/11/27 05:33:42;;;;;;;29.20;27.60;;;;;;;;;;5026603;28;20025;-63
2023/11/27 05:36:09;;;;;;;28.63;27.13;;;;;;;;;;5027220;28;20036;-63
2023/11/27 05:38:35;;;;;;;28.52;27.00;;;;;;;;;;5031148;28;20033;-63
2023/11/27 05:41:01;;;;;;;28.63;27.02;;;;;;;;;;5028716;28;20489;-64
2023/11/27 05:43:27;;;;;;;28.25;26.75;;;;;;;;;;5030305;28;20033;-49
2023/11/27 05:45:52;;;;;;;29.10;27.45;;;;;;;;;;5027271;28;20033;-50
2023/11/27 05:48:18;;;;;;;27.80;26.30;;;;;;;;;;5025824;28;20502;-51
2023/11/27 05:50:46;;;;;;;28.85;27.25;;;;;;;;;;5029215;28;20025;-53
2023/11/27 05:53:12;;;;;;;28.38;26.88;;;;;;;;;;5029605;28;20040;-50
2023/11/27 05:55:38;;;;;;;30.02;28.42;;;;;;;;;;5026741;28;20045;-53
2023/11/27 05:58:03;;;;;;;28.65;26.83;;;;;;;;;;5027080;28;20030;-50
2023/11/27 06:00:30;;;;;;;28.48;26.98;;;;;;;;;;5026127;28;20481;-51
2023/11/27 06:02:56;;;;;;;29.90;28.20;;;;;;;;;;5026921;28;20736;-53
2023/11/27 06:05:22;;;;;;;31.08;28.48;;;;;;;;;;5026825;28;20128;-50
2023/11/27 06:07:48;;;;;;;29.42;27.83;;;;;;;;;;5027043;28;20557;-50
2023/11/27 06:10:14;;;;;;;29.08;27.55;;;;;;;;;;5028746;28;20040;-49
2023/11/27 06:12:39;;;;;;;27.45;25.95;;;;;;;;;;5028160;28;20033;-53
2023/11/27 06:15:05;;;;;;;27.38;25.88;;;;;;;;;;5027284;28;20037;-52
2023/11/27 06:17:30;;;;;;;27.88;26.25;;;;;;;;;;5025721;28;20043;-53
2023/11/27 06:19:55;;;;;;;28.77;27.23;;;;;;;;;;5027327;28;20041;-51
2023/11/27 06:22:21;;;;;;;28.90;27.20;;;;;;;;;;5025417;28;20455;-50
2023/11/27 06:24:47;;;;;;;27.92;26.42;;;;;;;;;;5027154;28;20045;-48
2023/11/27 06:27:13;;;;;;;26.08;24.67;;;;;;;;;;5027683;28;20504;-50
2023/11/27 06:29:38;;;;;;;28.02;26.42;;;;;;;;;;5028211;28;20034;-63
2023/11/27 06:32:04;;;;;;;28.23;26.67;;;;;;;;;;5026570;28;20039;-64
2023/11/27 06:34:30;;;;;;;28.98;27.42;;;;;;;;;;5028378;28;20039;-51
2023/11/27 06:36:55;;;;;;;28.60;26.95;;;;;;;;;;5030932;28;20029;-52
2023/11/27 06:39:20;;;;;;;29.30;27.52;;;;;;;;;;5025281;28;20120;-48
2023/11/27 06:41:46;;;;;;;28.35;26.85;;;;;;;;;;5026386;28;20080;-53
2023/11/27 06:44:13;;;;;;;27.52;26.00;;;;;;;;;;5025287;28;20041;-50
2023/11/27 06:46:39;;;;;;;28.75;27.15;;;;;;;;;;5024236;28;20065;-55
2023/11/27 06:49:05;;;;;;;27.95;26.45;;;;;;;;;;5026446;28;20148;-52
2023/11/27 06:51:31;;;;;;;27.95;26.45;;;;;;;;;;5025798;28;20433;-53
2023/11/27 06:53:56;;;;;;;28.00;26.50;;;;;;;;;;5024824;28;20037;-52
2023/11/27 06:56:22;;;;;;;27.30;25.85;;;;;;;;;;5026930;28;20028;-53
2023/11/27 06:58:47;;;;;;;28.08;26.58;;;;;;;;;;5023977;28;20096;-53
2023/11/27 07:01:13;;;;;;;29.77;28.17;;;;;;;;;;5023296;28;20564;-53
2023/11/27 07:03:38;;;;;;;27.83;26.33;;;;;;;;;;5023836;28;20090;-51
2023/11/27 07:06:04;;;;;;;29.33;27.73;;;;;;;;;;5023031;28;20032;-53
2023/11/27 07:08:31;;;;;;;30.17;28.50;;;;;;;;;;5021847;28;20026;-55
2023/11/27 07:10:57;;;;;;;29.50;27.80;;;;;;;;;;5027717;28;20068;-62
2023/11/27 07:13:25;;;;;;;27.90;26.40;;;;;;;;;;5025261;28;20081;-63
2023/11/27 07:15:50;;;;;;;29.13;27.55;;;;;;;;;;5027202;28;20037;-55
2023/11/27 07:18:16;;;;;;;31.45;29.58;;;;;;;;;;5028554;28;20085;-62
2023/11/27 07:20:41;;;;;;;29.40;27.77;;;;;;;;;;5027683;28;20038;-62
2023/11/27 07:23:07;;;;;;;30.60;28.42;;;;;;;;;;5029902;28;20033;-62
2023/11/27 07:25:33;;;;;;;28.83;27.30;;;;;;;;;;5023250;28;20057;-62
2023/11/27 07:27:58;;;;;;;30.63;28.95;;;;;;;;;;5029057;28;20485;-63
2023/11/27 07:30:24;;;;;;;29.52;27.92;;;;;;;;;;5027621;28;20048;-63
2023/11/27 07:32:49;;;;;;;29.88;28.27;;;;;;;;;;5028658;28;20036;-62
2023/11/27 07:35:14;;;;;;;28.30;26.80;;;;;;;;;;5028111;28;20111;-62
2023/11/27 07:37:40;;;;;;;30.20;28.60;;;;;;;;;;5027438;28;20038;-63
2023/11/27 07:40:14;;;;;;;31.25;29.33;;;;;;;;;;5024637;28;20129;-62
2023/11/27 07:42:41;;;;;;;30.67;28.90;;;;;;;;;;5027047;28;20041;-63
2023/11/27 07:45:07;;;;;;;29.38;27.67;;;;;;;;;;5023989;28;20052;-63
2023/11/27 07:47:33;;;;;;;30.88;29.23;;;;;;;;;;5023185;28;21529;-55
2023/11/27 07:49:59;;;;;;;29.58;27.98;;;;;;;;;;5020224;28;20038;-51
2023/11/27 07:52:25;;;;;;;28.73;27.23;;;;;;;;;;5017662;28;20638;-53
2023/11/27 07:54:51;;;;;;;29.48;27.88;;;;;;;;;;5022876;28;20888;-54
2023/11/27 07:57:17;;;;;;;29.17;27.58;;;;;;;;;;5021600;28;20045;-52
2023/11/27 07:59:43;;;;;;;27.15;25.67;;;;;;;;;;5020932;28;20111;-49
2023/11/27 08:02:09;;;;;;;28.33;26.70;;;;;;;;;;5023663;28;20094;-53
2023/11/27 08:04:34;;;;;;;30.30;28.35;;;;;;;;;;5025039;28;20486;-51
2023/11/27 08:07:00;;;;;;;26.98;25.48;;;;;;;;;;5026422;28;20034;-53
2023/11/27 08:09:27;;;;;;;26.42;25.02;;;;;;;;;;5024723;28;20045;-52
2023/11/27 08:11:52;;;;;;;26.33;24.92;;;;;;;;;;5025662;28;20086;-50
2023/11/27 08:14:18;;;;;;;29.40;27.73;;;;;;;;;;5025724;28;20029;-55
2023/11/27 08:16:44;;;;;;;28.27;26.50;;;;;;;;;;5026092;28;20132;-52
2023/11/27 08:19:13;;;;;;;29.70;28.00;;;;;;;;;;5025940;28;20068;-54
2023/11/27 08:21:39;;;;;;;26.63;25.23;;;;;;;;;;5028027;28;20041;-51
2023/11/27 08:24:05;;;;;;;30.05;27.75;;;;;;;;;;5026315;28;20049;-51
2023/11/27 08:26:39;;;;;;;28.33;26.58;;;;;;;;;;5026482;28;20053;-53
2023/11/27 08:29:15;;;;;;;30.40;28.48;;;;;;;;;;5028617;28;20033;-52
2023/11/27 08:31:41;;;;;;;29.95;27.98;;;;;;;;;;5031078;28;20029;-52
2023/11/27 08:34:07;;;;;;;27.30;25.80;;;;;;;;;;5026582;28;20041;-51
2023/11/27 08:36:33;;;;;;;28.92;27.33;;;;;;;;;;5028581;28;20039;-54
2023/11/27 08:38:58;;;;;;;27.52;26.05;;;;;;;;;;5029514;28;20363;-54
2023/11/27 08:41:24;;;;;;;28.00;26.42;;;;;;;;;;5026310;28;20029;-53
2023/11/27 08:43:49;;;;;;;26.42;25.02;;;;;;;;;;5026921;28;20076;-53
2023/11/27 08:46:15;;;;;;;26.40;24.90;;;;;;;;;;5027874;28;20455;-54
2023/11/27 08:48:40;;;;;;;26.33;24.85;;;;;;;;;;5028763;28;20029;-54
2023/11/27 08:51:10;;;;;;;28.67;27.00;;;;;;;;;;5024157;28;20553;-54
2023/11/27 08:53:35;;;;;;;26.98;25.48;;;;;;;;;;5029645;28;20103;-54
2023/11/27 08:56:02;;;;;;;27.58;26.08;;;;;;;;;;5024790;28;20026;-53
2023/11/27 08:58:28;;;;;;;26.95;25.45;;;;;;;;;;5024615;28;20033;-54
2023/11/27 09:00:54;;;;;;;27.08;25.50;;;;;;;;;;5024101;28;20041;-54
2023/11/27 09:03:20;;;;;;;28.40;26.38;;;;;;;;;;5026718;28;20045;-53
2023/11/27 09:05:46;;;;;;;27.38;25.88;;;;;;;;;;5027496;28;20047;-54
2023/11/27 09:08:13;;;;;;;27.00;25.50;;;;;;;;;;5026779;28;20691;-60
2023/11/27 09:10:40;;;;;;;27.48;25.98;;;;;;;;;;5025284;28;20034;-50
2023/11/27 09:13:05;;;;;;;27.85;26.35;;;;;;;;;;5028102;28;20044;-55
2023/11/27 09:15:31;;;;;;;27.67;26.08;;;;;;;;;;5025099;28;20030;-53
2023/11/27 09:17:57;;;;;;;26.95;25.45;;;;;;;;;;5026840;28;20522;-51
2023/11/27 09:20:22;;;;;;;28.35;26.75;;;;;;;;;;5025815;28;20033;-54
2023/11/27 09:22:48;;;;;;;26.90;25.48;;;;;;;;;;5027434;28;20029;-54
2023/11/27 09:25:15;;;;;;;26.02;24.63;;;;;;;;;;5023793;28;21141;-60
2023/11/27 09:27:41;;;;;;;25.35;24.00;;;;;;;;;;5026083;28;20371;-61
2023/11/27 09:30:07;;;;;;;26.10;24.70;;;;;;;;;;5025811;28;20045;-61
2023/11/27 09:32:36;;;;;;;26.42;25.02;;;;;;;;;;5026196;28;20474;-61
2023/11/27 09:35:04;;;;;;;27.88;26.27;;;;;;;;;;5026926;28;20383;-60
2023/11/27 09:37:30;;;;;;;28.70;27.20;;;;;;;;;;5025212;28;20037;-60
2023/11/27 09:39:55;;;;;;;28.33;26.55;;;;;;;;;;5026120;28;20041;-60
2023/11/27 09:42:24;;;;;;;27.67;26.20;;;;;;;;;;5025615;28;20033;-60
2023/11/27 09:44:50;;;;;;;27.90;26.40;;;;;;;;;;5026592;28;20127;-61
2023/11/27 09:47:16;;;;;;;27.73;26.15;;;;;;;;;;5026447;28;20055;-61
2023/11/27 09:49:46;;;;;;;27.67;26.17;;;;;;;;;;5024086;28;20529;-59
2023/11/27 09:52:17;;;;;;;28.50;26.90;;;;;;;;;;5025573;28;20041;-61
2023/11/27 09:54:50;;;;;;;31.73;29.42;;;;;;;;;;5023249;28;20034;-60
2023/11/27 09:57:17;;;;;;;29.20;27.50;;;;;;;;;;5026332;28;20029;-61
2023/11/27 09:59:43;;;;;;;44.80;42.40;;;;;;;;;;5028196;28;20103;-61
2023/11/27 10:02:10;;;;;;;28.58;26.90;;;;;;;;;;5023367;28;20041;-60
2023/11/27 10:04:35;;;;;;;28.33;26.83;;;;;;;;;;5025069;28;20112;-61
2023/11/27 10:07:01;;;;;;;29.55;27.63;;;;;;;;;;5028170;28;20112;-60
2023/11/27 10:09:26;;;;;;;29.58;27.80;;;;;;;;;;5025823;28;20029;-60
2023/11/27 10:12:00;;;;;;;28.67;27.17;;;;;;;;;;5025459;28;20041;-61
2023/11/27 10:14:27;;;;;;;31.27;29.63;;;;;;;;;;5025456;28;20037;-60
2023/11/27 10:16:54;;;;;;;32.35;30.30;;;;;;;;;;5025736;28;20064;-61
2023/11/27 10:19:23;;;;;;;30.88;29.17;;;;;;;;;;5025547;28;20562;-60
2023/11/27 10:21:49;;;;;;;30.90;29.27;;;;;;;;;;5026828;28;20075;-61
2023/11/27 10:24:16;;;;;;;31.33;29.67;;;;;;;;;;5024786;28;20472;-61
2023/11/27 10:26:43;;;;;;;34.28;32.45;;;;;;;;;;5025819;28;20033;-60
2023/11/27 10:29:23;;;;;;;35.10;33.20;;;;;;;;;;5025302;28;20052;-61
2023/11/27 10:31:48;;;;;;;34.40;32.60;;;;;;;;;;5024005;28;20029;-61
2023/11/27 10:34:14;;;;;;;35.90;33.83;;;;;;;;;;5026138;28;20034;-60
2023/11/27 10:36:39;;;;;;;34.70;32.85;;;;;;;;;;5022668;28;20061;-60
2023/11/27 10:39:14;;;;;;;36.78;34.88;;;;;;;;;;5025602;28;20504;-60
2023/11/27 10:41:46;;;;;;;35.30;33.30;;;;;;;;;;5024511;28;20470;-60
2023/11/27 10:44:14;;;;;;;35.67;33.17;;;;;;;;;;5022313;28;20033;-60
2023/11/27 10:46:44;;;;;;;36.13;34.22;;;;;;;;;;5021952;28;20056;-60
2023/11/27 10:49:14;;;;;;;34.08;32.25;;;;;;;;;;5025710;28;20038;-60
2023/11/27 10:51:40;;;;;;;37.78;35.85;;;;;;;;;;5026636;28;20037;-60
2023/11/27 10:54:05;;;;;;;38.22;35.97;;;;;;;;;;5023524;28;20562;-59
2023/11/27 10:56:31;;;;;;;36.47;34.42;;;;;;;;;;5007889;28;20040;-60
2023/11/27 10:59:05;;;;;;;35.17;33.28;;;;;;;;;;5024967;28;20045;-60
2023/11/27 11:01:36;;;;;;;34.72;32.85;;;;;;;;;;5022074;28;20107;-61
2023/11/27 11:04:09;;;;;;;34.50;32.70;;;;;;;;;;5024802;28;20032;-61
2023/11/27 11:06:38;;;;;;;34.10;32.30;;;;;;;;;;5022512;28;20137;-60
2023/11/27 11:09:07;;;;;;;35.30;33.47;;;;;;;;;;5022378;28;20367;-51
2023/11/27 11:11:33;;;;;;;36.88;34.88;;;;;;;;;;5026292;28;20032;-49
2023/11/27 11:13:59;;;;;;;36.45;34.45;;;;;;;;;;5023701;28;20055;-59
2023/11/27 11:16:33;;;;;;;33.38;31.65;;;;;;;;;;5024786;28;20029;-59
2023/11/27 11:19:08;;;;;;;34.22;32.42;;;;;;;;;;5025888;28;20037;-59
2023/11/27 11:21:57;;;;;;;35.65;33.78;;;;;;;;;;5024027;28;20634;-52
2023/11/27 11:24:55;;;;;;;34.58;32.72;;;;;;;;;;5023390;28;20750;-59
2023/11/27 11:27:45;;;;;;;33.92;32.13;;;;;;;;;;5015420;28;20181;-49
2023/11/27 11:30:13;;;;;;;33.10;31.38;;;;;;;;;;5021746;28;20128;-49
2023/11/27 11:32:40;;;;;;;37.17;34.95;;;;;;;;;;5019310;28;20040;-53
2023/11/27 11:35:11;;;;;;;34.75;32.92;;;;;;;;;;5024023;28;20043;-50
2023/11/27 11:37:56;;;;;;;36.05;34.20;;;;;;;;;;5022083;28;20029;-51
2023/11/27 11:40:37;;;;;;;35.42;33.50;;;;;;;;;;5040798;28;20074;-50
2023/11/27 11:43:05;;;;;;;32.60;30.88;;;;;;;;;;5025053;28;20032;-51
2023/11/27 11:45:34;;;;;;;33.83;31.95;;;;;;;;;;5026181;28;20374;-52
2023/11/27 11:48:01;;;;;;;35.22;33.28;;;;;;;;;;5025174;28;20614;-50
2023/11/27 11:50:30;;;;;;;33.15;31.40;;;;;;;;;;5024739;28;20026;-51
2023/11/27 11:52:57;;;;;;;33.00;31.25;;;;;;;;;;5026666;28;20041;-50
2023/11/27 11:55:30;;;;;;;34.15;32.30;;;;;;;;;;5026326;28;20117;-51
2023/11/27 11:58:27;;;;;;;31.30;29.65;;;;;;;;;;5024240;28;20100;-50
2023/11/27 12:01:08;;;;;;;29.40;27.85;;;;;;;;;;5021625;28;20125;-51
2023/11/27 12:03:35;;;;;;;32.75;31.05;;;;;;;;;;5026050;28;20097;-52
2023/11/27 12:06:03;;;;;;;30.30;28.67;;;;;;;;;;5025401;28;20497;-50
2023/11/27 12:08:30;;;;;;;31.92;30.20;;;;;;;;;;5024987;28;20439;-49
2023/11/27 12:10:57;;;;;;;32.38;30.60;;;;;;;;;;5021683;28;20033;-51
2023/11/27 12:13:36;;;;;;;33.25;31.42;;;;;;;;;;5022359;28;20147;-50
2023/11/27 12:16:11;;;;;;;30.38;28.70;;;;;;;;;;5023533;28;20460;-48
2023/11/27 12:18:37;;;;;;;28.80;27.27;;;;;;;;;;5026969;28;20103;-51
2023/11/27 12:21:05;;;;;;;29.85;28.25;;;;;;;;;;5026999;28;20030;-51
2023/11/27 12:23:31;;;;;;;29.15;27.58;;;;;;;;;;5023182;28;20037;-52
2023/11/27 12:25:58;;;;;;;30.05;28.45;;;;;;;;;;5025525;28;20462;-52
2023/11/27 12:28:24;;;;;;;28.30;26.67;;;;;;;;;;5024549;28;20033;-54
2023/11/27 12:30:50;;;;;;;31.73;30.05;;;;;;;;;;5023913;28;20463;-51
2023/11/27 12:33:17;;;;;;;34.45;32.47;;;;;;;;;;5027304;28;20117;-51
2023/11/27 12:35:43;;;;;;;30.92;29.33;;;;;;;;;;5026190;28;20042;-54
2023/11/27 12:38:11;;;;;;;31.67;30.00;;;;;;;;;;5025528;28;20037;-51
2023/11/27 12:40:36;;;;;;;32.10;30.25;;;;;;;;;;5024033;28;20052;-51
2023/11/27 12:43:06;;;;;;;30.85;29.15;;;;;;;;;;5023537;28;20033;-52
2023/11/27 12:45:33;;;;;;;32.55;30.85;;;;;;;;;;5025293;28;20044;-50
2023/11/27 12:47:58;;;;;;;37.03;35.03;;;;;;;;;;5026515;28;20026;-49
2023/11/27 12:50:29;;;;;;;34.90;33.08;;;;;;;;;;5011511;28;20030;-53
2023/11/27 12:53:07;;;;;;;33.70;31.95;;;;;;;;;;5025861;28;20033;-52
2023/11/27 12:55:37;;;;;;;32.85;31.08;;;;;;;;;;5023965;28;20423;-51
2023/11/27 12:58:12;;;;;;;32.78;31.08;;;;;;;;;;5025814;28;20030;-52
2023/11/27 13:00:44;;;;;;;32.05;30.30;;;;;;;;;;5020902;28;20117;-51
2023/11/27 13:03:14;;;;;;;33.40;31.67;;;;;;;;;;5025591;28;20033;-52
2023/11/27 13:05:41;;;;;;;32.88;31.13;;;;;;;;;;5027237;28;20033;-52
2023/11/27 13:08:07;;;;;;;31.65;30.00;;;;;;;;;;5024237;28;20112;-49
2023/11/27 13:10:42;;;;;;;32.38;30.67;;;;;;;;;;5030986;28;20112;-53
2023/11/27 13:13:11;;;;;;;31.17;29.55;;;;;;;;;;5023039;28;20537;-52
2023/11/27 13:15:38;;;;;;;31.35;29.70;;;;;;;;;;5023456;28;20041;-50
2023/11/27 13:18:06;;;;;;;30.88;29.25;;;;;;;;;;5022363;28;20145;-52
2023/11/27 13:20:35;;;;;;;31.88;30.20;;;;;;;;;;5025153;28;20025;-49
2023/11/27 13:23:01;;;;;;;31.52;29.88;;;;;;;;;;5028229;28;20080;-50
2023/11/27 13:25:35;;;;;;;31.02;29.40;;;;;;;;;;5025796;28;20352;-49
2023/11/27 13:28:01;;;;;;;29.88;28.33;;;;;;;;;;5024619;28;20041;-47
2023/11/27 13:30:26;;;;;;;28.77;27.27;;;;;;;;;;5023945;28;20382;-49
2023/11/27 13:32:59;;;;;;;28.65;27.15;;;;;;;;;;5025925;28;20037;-48
2023/11/27 13:35:34;;;;;;;27.17;25.58;;;;;;;;;;5033795;28;20045;-51
2023/11/27 13:38:02;;;;;;;27.88;26.35;;;;;;;;;;5028436;28;20040;-50
2023/11/27 13:40:35;;;;;;;28.35;26.85;;;;;;;;;;5019885;28;20042;-52
2023/11/27 13:43:01;;;;;;;27.90;26.42;;;;;;;;;;5026091;28;20045;-50
2023/11/27 13:45:33;;;;;;;27.40;25.95;;;;;;;;;;5025365;28;20069;-50
2023/11/27 13:48:03;;;;;;;26.23;24.83;;;;;;;;;;5023991;28;20363;-48
2023/11/27 13:50:36;;;;;;;29.13;27.33;;;;;;;;;;5030957;28;20035;-48
2023/11/27 13:53:08;;;;;;;28.13;26.65;;;;;;;;;;5025439;28;20049;-52
2023/11/27 13:55:37;;;;;;;28.88;27.35;;;;;;;;;;5025829;28;20588;-51
2023/11/27 13:58:09;;;;;;;29.50;27.98;;;;;;;;;;5022989;28;20065;-49
2023/11/27 14:00:48;;;;;;;30.50;28.60;;;;;;;;;;5024524;28;20033;-50
2023/11/27 14:03:21;;;;;;;29.17;27.63;;;;;;;;;;5024245;28;20038;-47
2023/11/27 14:05:50;;;;;;;30.33;28.63;;;;;;;;;;5024640;28;20053;-51
2023/11/27 14:08:19;;;;;;;28.95;27.42;;;;;;;;;;5023491;28;20030;-47
2023/11/27 14:11:08;;;;;;;30.92;29.33;;;;;;;;;;5023912;28;20037;-48
2023/11/27 14:13:34;;;;;;;31.77;30.13;;;;;;;;;;5024700;28;20030;-48
2023/11/27 14:16:02;;;;;;;32.20;30.45;;;;;;;;;;5024214;28;20040;-50